createdAt,value
2017-07-15T00:00:52.865Z,99.32
2017-07-15T00:01:52.889Z,99.37
2017-07-15T00:02:52.888Z,99.78
2017-07-15T00:03:52.890Z,99.99
2017-07-15T00:04:52.890Z,99.99
2017-07-15T00:05:52.928Z,99.99
2017-07-15T00:06:52.861Z,99.99
2017-07-15T00:07:52.928Z,99.99
2017-07-15T00:08:53.021Z,99.99
2017-07-15T00:09:52.893Z,99.99
2017-07-15T00:10:52.877Z,99.99
2017-07-15T00:11:52.896Z,99.99
2017-07-15T00:12:52.897Z,99.99
2017-07-15T00:13:52.943Z,99.99
2017-07-15T00:14:52.982Z,99.99
2017-07-15T00:15:52.888Z,99.99
2017-07-15T00:16:52.944Z,99.99
2017-07-15T00:17:52.946Z,99.99
2017-07-15T00:18:52.965Z,99.99
2017-07-15T00:19:52.912Z,99.99
2017-07-15T00:20:52.843Z,99.99
2017-07-15T00:21:52.884Z,99.99
2017-07-15T00:22:52.844Z,99.99
2017-07-15T00:23:52.904Z,99.99
2017-07-15T00:24:52.874Z,99.99
2017-07-15T00:25:52.901Z,99.99
2017-07-15T00:26:52.852Z,99.99
2017-07-15T00:27:52.862Z,99.99
2017-07-15T00:28:52.905Z,99.99
2017-07-15T00:29:52.944Z,99.99
2017-07-15T00:30:52.874Z,99.99
2017-07-15T00:31:52.903Z,99.99
2017-07-15T00:32:52.902Z,99.99
2017-07-15T00:33:52.902Z,99.99
2017-07-15T00:34:52.903Z,99.99
2017-07-15T00:35:52.903Z,99.99
2017-07-15T00:36:52.882Z,99.99
2017-07-15T00:37:52.941Z,99.99
2017-07-15T00:38:52.948Z,99.99
2017-07-15T00:39:52.873Z,99.99
2017-07-15T00:40:52.902Z,99.99
2017-07-15T00:41:52.903Z,99.99
2017-07-15T00:42:52.884Z,99.99
2017-07-15T00:43:52.833Z,99.99
2017-07-15T00:44:52.835Z,99.99
2017-07-15T00:45:52.935Z,99.99
2017-07-15T00:46:52.848Z,99.99
2017-07-15T00:47:52.846Z,99.99
2017-07-15T00:48:52.848Z,99.99
2017-07-15T00:49:52.839Z,99.99
2017-07-15T00:50:52.839Z,99.99
2017-07-15T00:51:52.841Z,99.99
2017-07-15T00:52:52.940Z,99.99
2017-07-15T00:53:52.916Z,99.99
2017-07-15T00:54:52.873Z,99.99
2017-07-15T00:55:52.918Z,99.99
2017-07-15T00:56:52.892Z,99.99
2017-07-15T00:57:52.918Z,99.99
2017-07-15T00:58:52.900Z,99.99
2017-07-15T00:59:52.870Z,99.99
2017-07-15T01:00:52.896Z,99.99
2017-07-15T01:01:52.924Z,99.99
2017-07-15T01:03:52.885Z,99.99
2017-07-15T01:04:52.966Z,99.99
2017-07-15T01:05:52.913Z,99.99
2017-07-15T01:06:52.924Z,99.99
2017-07-15T01:07:52.970Z,99.99
2017-07-15T01:08:52.900Z,99.99
2017-07-15T01:09:52.898Z,99.99
2017-07-15T01:10:52.901Z,99.99
2017-07-15T01:11:52.872Z,99.99
2017-07-15T01:12:52.881Z,99.99
2017-07-15T01:13:52.908Z,99.99
2017-07-15T01:14:52.930Z,99.99
2017-07-15T01:15:52.942Z,99.99
2017-07-15T01:16:52.912Z,99.99
2017-07-15T01:17:52.910Z,99.99
2017-07-15T01:18:52.928Z,99.99
2017-07-15T01:19:52.906Z,99.99
2017-07-15T01:20:52.911Z,99.99
2017-07-15T01:21:52.935Z,99.99
2017-07-15T01:22:52.915Z,99.99
2017-07-15T01:23:52.967Z,99.86
2017-07-15T01:24:52.945Z,99.78
2017-07-15T01:25:52.952Z,99.64
2017-07-15T01:26:52.924Z,99.62
2017-07-15T01:27:52.971Z,99.34
2017-07-15T01:28:52.979Z,99.18
2017-07-15T01:29:52.911Z,99.07
2017-07-15T01:30:52.948Z,98.88
2017-07-15T01:31:52.963Z,98.75
2017-07-15T01:32:52.923Z,98.48
2017-07-15T01:33:52.985Z,98.37
2017-07-15T01:34:53.014Z,98.34
2017-07-15T01:35:52.980Z,98.40
2017-07-15T01:36:52.986Z,98.23
2017-07-15T01:37:52.943Z,97.99
2017-07-15T01:38:52.971Z,98.15
2017-07-15T01:39:52.928Z,98.29
2017-07-15T01:40:52.920Z,97.45
2017-07-15T01:41:52.989Z,97.21
2017-07-15T01:42:52.919Z,96.45
2017-07-15T01:43:52.993Z,96.45
2017-07-15T01:44:52.986Z,97.02
2017-07-15T01:45:52.973Z,97.47
2017-07-15T01:46:52.927Z,97.69
2017-07-15T01:47:52.948Z,98.02
2017-07-15T01:48:52.996Z,98.37
2017-07-15T01:49:52.922Z,98.34
2017-07-15T01:50:53.017Z,98.99
2017-07-15T01:51:52.959Z,99.48
2017-07-15T01:52:53.021Z,99.70
2017-07-15T01:53:52.903Z,99.75
2017-07-15T01:54:52.892Z,99.59
2017-07-15T01:55:52.850Z,98.42
2017-07-15T01:56:52.917Z,98.61
2017-07-15T01:57:52.917Z,98.88
2017-07-15T01:58:52.898Z,99.02
2017-07-15T01:59:52.933Z,99.29
2017-07-15T02:00:52.840Z,99.40
2017-07-15T02:01:52.919Z,99.62
2017-07-15T02:02:52.925Z,99.56
2017-07-15T02:03:52.931Z,99.67
2017-07-15T02:04:52.985Z,99.83
2017-07-15T02:05:52.970Z,99.81
2017-07-15T02:06:52.938Z,97.64
2017-07-15T02:07:52.937Z,97.42
2017-07-15T02:08:52.937Z,97.26
2017-07-15T02:09:52.973Z,97.21
2017-07-15T02:10:52.961Z,97.18
2017-07-15T02:11:53.018Z,96.93
2017-07-15T02:12:52.931Z,96.53
2017-07-15T02:13:52.986Z,97.15
2017-07-15T02:14:52.945Z,96.66
2017-07-15T02:15:52.929Z,96.20
2017-07-15T02:16:52.939Z,96.04
2017-07-15T02:17:52.958Z,95.56
2017-07-15T02:18:52.967Z,95.88
2017-07-15T02:19:52.953Z,95.58
2017-07-15T02:20:52.924Z,95.66
2017-07-15T02:21:53.091Z,95.45
2017-07-15T02:22:52.940Z,95.10
2017-07-15T02:23:52.935Z,95.37
2017-07-15T02:24:52.965Z,95.28
2017-07-15T02:25:52.964Z,96.09
2017-07-15T02:26:52.970Z,96.28
2017-07-15T02:27:52.964Z,96.47
2017-07-15T02:28:53.002Z,96.61
2017-07-15T02:29:53.002Z,97.04
2017-07-15T02:30:53.000Z,96.93
2017-07-15T02:31:53.005Z,97.15
2017-07-15T02:32:52.970Z,96.99
2017-07-15T02:33:53.024Z,96.74
2017-07-15T02:34:52.970Z,97.72
2017-07-15T02:35:52.966Z,97.74
2017-07-15T02:36:52.938Z,98.02
2017-07-15T02:37:52.942Z,98.10
2017-07-15T02:38:52.943Z,98.59
2017-07-15T02:39:53.005Z,98.55
2017-07-15T02:40:53.009Z,98.83
2017-07-15T02:41:52.973Z,98.69
2017-07-15T02:42:52.947Z,98.72
2017-07-15T02:43:52.971Z,98.91
2017-07-15T02:44:52.929Z,99.18
2017-07-15T02:45:53.021Z,99.18
2017-07-15T02:46:52.934Z,99.29
2017-07-15T02:47:52.929Z,99.07
2017-07-15T02:48:52.980Z,99.13
2017-07-15T02:49:52.931Z,99.23
2017-07-15T02:50:52.938Z,99.56
2017-07-15T02:51:52.937Z,99.67
2017-07-15T02:52:52.944Z,99.51
2017-07-15T02:53:52.928Z,99.48
2017-07-15T02:54:52.979Z,99.70
2017-07-15T02:55:52.913Z,99.89
2017-07-15T02:56:53.027Z,99.99
2017-07-15T02:57:53.022Z,99.94
2017-07-15T02:58:52.981Z,99.99
2017-07-15T02:59:52.970Z,99.99
2017-07-15T03:01:52.987Z,99.99
2017-07-15T03:02:52.934Z,99.99
2017-07-15T03:03:53.033Z,99.99
2017-07-15T03:04:52.978Z,99.99
2017-07-15T03:05:52.947Z,99.99
2017-07-15T03:06:52.936Z,99.99
2017-07-15T03:07:52.936Z,99.99
2017-07-15T03:08:52.995Z,99.99
2017-07-15T03:09:53.033Z,99.99
2017-07-15T03:10:52.940Z,99.94
2017-07-15T03:11:52.944Z,99.59
2017-07-15T03:12:52.984Z,99.48
2017-07-15T03:13:52.978Z,99.78
2017-07-15T03:14:53.025Z,99.13
2017-07-15T03:15:53.029Z,99.15
2017-07-15T03:16:52.971Z,98.83
2017-07-15T03:17:53.034Z,98.23
2017-07-15T03:18:52.997Z,98.31
2017-07-15T03:19:52.968Z,98.37
2017-07-15T03:20:52.967Z,98.23
2017-07-15T03:21:52.969Z,98.26
2017-07-15T03:22:52.968Z,97.66
2017-07-15T03:23:53.031Z,97.99
2017-07-15T03:24:53.046Z,97.58
2017-07-15T03:25:53.005Z,97.47
2017-07-15T03:26:52.980Z,97.69
2017-07-15T03:27:53.052Z,98.21
2017-07-15T03:28:53.081Z,98.04
2017-07-15T03:29:52.977Z,97.74
2017-07-15T03:30:53.017Z,97.66
2017-07-15T03:31:53.042Z,97.85
2017-07-15T03:32:52.993Z,98.07
2017-07-15T03:33:53.106Z,98.04
2017-07-15T03:34:53.013Z,98.40
2017-07-15T03:35:52.982Z,98.42
2017-07-15T03:36:53.012Z,98.80
2017-07-15T03:37:53.020Z,98.96
2017-07-15T03:38:53.074Z,99.13
2017-07-15T03:39:53.055Z,99.13
2017-07-15T03:40:53.078Z,99.32
2017-07-15T03:41:53.012Z,99.51
2017-07-15T03:42:53.045Z,99.62
2017-07-15T03:43:52.987Z,99.15
2017-07-15T03:44:53.018Z,99.07
2017-07-15T03:45:53.076Z,98.88
2017-07-15T03:46:53.009Z,99.18
2017-07-15T03:47:52.990Z,99.40
2017-07-15T03:48:52.983Z,99.43
2017-07-15T03:49:52.985Z,99.15
2017-07-15T03:50:52.980Z,99.10
2017-07-15T03:51:53.015Z,99.53
2017-07-15T03:52:52.980Z,99.70
2017-07-15T03:53:53.009Z,99.83
2017-07-15T03:54:53.026Z,99.99
2017-07-15T03:55:53.047Z,99.86
2017-07-15T03:56:53.002Z,99.72
2017-07-15T03:57:53.085Z,99.86
2017-07-15T03:58:53.015Z,99.86
2017-07-15T03:59:53.033Z,99.89
2017-07-15T04:00:53.050Z,99.99
2017-07-15T04:01:53.049Z,99.99
2017-07-15T04:02:52.998Z,99.99
2017-07-15T04:03:53.073Z,99.99
2017-07-15T04:04:53.056Z,99.99
2017-07-15T04:05:53.030Z,99.99
2017-07-15T04:06:52.995Z,99.99
2017-07-15T04:07:52.995Z,99.99
2017-07-15T04:08:53.018Z,99.99
2017-07-15T04:09:52.997Z,99.99
2017-07-15T04:10:52.972Z,99.99
2017-07-15T04:11:53.062Z,99.99
2017-07-15T04:12:52.978Z,99.99
2017-07-15T04:13:53.143Z,99.99
2017-07-15T04:14:53.077Z,99.99
2017-07-15T04:15:53.057Z,99.99
2017-07-15T04:16:53.008Z,99.99
2017-07-15T04:17:53.078Z,99.99
2017-07-15T04:18:53.062Z,99.99
2017-07-15T04:19:53.010Z,99.99
2017-07-15T04:20:53.062Z,99.99
2017-07-15T04:21:53.080Z,99.99
2017-07-15T04:22:53.014Z,99.99
2017-07-15T04:23:53.034Z,99.99
2017-07-15T04:24:53.049Z,99.99
2017-07-15T04:25:53.082Z,99.99
2017-07-15T04:26:53.037Z,99.99
2017-07-15T04:27:53.091Z,99.99
2017-07-15T04:28:53.103Z,99.99
2017-07-15T04:29:53.043Z,99.99
2017-07-15T04:30:53.013Z,99.99
2017-07-15T04:31:53.050Z,99.99
2017-07-15T04:32:53.011Z,99.99
2017-07-15T04:33:53.046Z,99.99
2017-07-15T04:34:53.045Z,99.99
2017-07-15T04:35:53.017Z,99.99
2017-07-15T04:36:53.047Z,99.99
2017-07-15T04:37:53.105Z,99.99
2017-07-15T04:38:53.022Z,99.99
2017-07-15T04:39:53.074Z,99.99
2017-07-15T04:40:53.089Z,99.99
2017-07-15T04:41:53.074Z,99.99
2017-07-15T04:42:53.052Z,99.99
2017-07-15T04:43:53.080Z,99.99
2017-07-15T04:44:53.115Z,99.99
2017-07-15T04:45:53.029Z,99.99
2017-07-15T04:46:53.063Z,99.99
2017-07-15T04:47:53.117Z,99.99
2017-07-15T04:48:53.055Z,99.99
2017-07-15T04:49:53.100Z,99.99
2017-07-15T04:50:53.095Z,99.99
2017-07-15T04:51:53.021Z,99.99
2017-07-15T04:52:53.116Z,99.99
2017-07-15T04:53:53.065Z,99.99
2017-07-15T04:54:53.099Z,99.99
2017-07-15T04:55:53.101Z,99.99
2017-07-15T04:56:53.088Z,99.99
2017-07-15T04:57:53.122Z,99.99
2017-07-15T04:58:53.032Z,99.99
2017-07-15T04:59:53.088Z,99.99
2017-07-15T05:00:53.130Z,99.99
2017-07-15T05:01:53.070Z,99.99
2017-07-15T05:02:53.065Z,99.99
2017-07-15T05:03:53.095Z,99.99
2017-07-15T05:04:53.039Z,99.99
2017-07-15T05:05:53.074Z,99.99
2017-07-15T05:06:53.043Z,99.99
2017-07-15T05:07:53.091Z,99.99
2017-07-15T05:08:53.042Z,99.99
2017-07-15T05:09:53.110Z,99.99
2017-07-15T05:10:53.073Z,99.99
2017-07-15T05:11:53.106Z,99.99
2017-07-15T05:12:53.100Z,99.99
2017-07-15T05:13:53.066Z,99.99
2017-07-15T05:14:53.113Z,99.99
2017-07-15T05:15:53.062Z,99.99
2017-07-15T05:16:53.060Z,99.99
2017-07-15T05:17:53.097Z,99.99
2017-07-15T05:18:53.033Z,99.99
2017-07-15T05:19:53.073Z,99.99
2017-07-15T05:20:53.069Z,99.99
2017-07-15T05:21:53.037Z,99.99
2017-07-15T05:22:53.035Z,99.99
2017-07-15T05:23:53.097Z,99.99
2017-07-15T05:24:53.050Z,99.99
2017-07-15T05:25:53.043Z,99.99
2017-07-15T05:26:53.045Z,99.99
2017-07-15T05:27:53.113Z,99.99
2017-07-15T05:28:53.083Z,99.99
2017-07-15T05:29:53.053Z,99.99
2017-07-15T05:30:53.090Z,99.99
2017-07-15T05:31:53.143Z,99.99
2017-07-15T05:32:53.048Z,99.53
2017-07-15T05:33:53.122Z,99.64
2017-07-15T05:34:53.145Z,99.83
2017-07-15T05:35:53.115Z,99.10
2017-07-15T05:36:53.128Z,99.43
2017-07-15T05:37:53.089Z,98.99
2017-07-15T05:38:53.142Z,99.26
2017-07-15T05:39:53.124Z,99.59
2017-07-15T05:40:53.110Z,98.94
2017-07-15T05:41:53.054Z,98.83
2017-07-15T05:42:53.058Z,99.40
2017-07-15T05:43:53.082Z,99.07
2017-07-15T05:44:53.063Z,99.13
2017-07-15T05:45:53.121Z,99.07
2017-07-15T05:46:53.123Z,98.96
2017-07-15T05:47:53.124Z,99.04
2017-07-15T05:48:53.058Z,98.94
2017-07-15T05:49:53.066Z,99.45
2017-07-15T05:50:53.091Z,99.43
2017-07-15T05:51:53.160Z,99.75
2017-07-15T05:52:53.129Z,99.99
2017-07-15T05:53:53.096Z,99.99
2017-07-15T05:54:53.060Z,98.94
2017-07-15T05:55:53.061Z,98.85
2017-07-15T05:56:53.096Z,98.61
2017-07-15T05:57:53.118Z,99.07
2017-07-15T05:58:53.134Z,99.53
2017-07-15T05:59:53.071Z,99.64
2017-07-15T06:00:53.122Z,99.64
2017-07-15T06:01:53.142Z,99.62
2017-07-15T06:02:53.066Z,99.15
2017-07-15T06:03:53.126Z,99.43
2017-07-15T06:04:53.106Z,99.67
2017-07-15T06:05:53.140Z,99.26
2017-07-15T06:06:53.160Z,99.43
2017-07-15T06:07:53.107Z,99.21
2017-07-15T06:08:53.074Z,99.21
2017-07-15T06:09:53.167Z,99.07
2017-07-15T06:10:53.100Z,98.34
2017-07-15T06:11:53.090Z,97.91
2017-07-15T06:12:53.165Z,98.53
2017-07-15T06:13:53.148Z,98.94
2017-07-15T06:14:53.127Z,99.04
2017-07-15T06:15:53.126Z,98.77
2017-07-15T06:16:53.100Z,98.75
2017-07-15T06:17:53.163Z,98.69
2017-07-15T06:18:53.066Z,99.13
2017-07-15T06:19:53.066Z,98.53
2017-07-15T06:20:53.253Z,98.85
2017-07-15T06:21:53.137Z,98.59
2017-07-15T06:22:53.072Z,98.48
2017-07-15T06:23:53.131Z,98.18
2017-07-15T06:24:53.100Z,98.07
2017-07-15T06:25:53.106Z,97.69
2017-07-15T06:26:53.078Z,97.66
2017-07-15T06:27:53.102Z,97.36
2017-07-15T06:28:53.077Z,97.07
2017-07-15T06:29:53.149Z,97.47
2017-07-15T06:30:53.065Z,97.18
2017-07-15T06:31:53.088Z,97.74
2017-07-15T06:32:53.106Z,97.93
2017-07-15T06:33:53.096Z,97.36
2017-07-15T06:34:53.108Z,97.26
2017-07-15T06:35:53.197Z,97.77
2017-07-15T06:36:53.077Z,97.55
2017-07-15T06:37:53.011Z,97.15
2017-07-15T06:38:53.011Z,97.53
2017-07-15T06:39:53.081Z,97.47
2017-07-15T06:40:53.091Z,96.69
2017-07-15T06:41:53.018Z,97.45
2017-07-15T06:42:53.087Z,96.36
2017-07-15T06:43:53.096Z,96.93
2017-07-15T06:44:53.028Z,97.74
2017-07-15T06:45:53.093Z,97.28
2017-07-15T06:46:53.104Z,97.47
2017-07-15T06:47:53.076Z,95.37
2017-07-15T06:48:53.087Z,96.02
2017-07-15T06:49:53.111Z,96.64
2017-07-15T06:50:53.095Z,97.15
2017-07-15T06:51:53.116Z,97.66
2017-07-15T06:52:53.036Z,96.20
2017-07-15T06:53:53.074Z,95.85
2017-07-15T06:54:53.134Z,95.61
2017-07-15T06:55:53.082Z,94.96
2017-07-15T06:56:53.094Z,95.64
2017-07-15T06:57:53.146Z,94.61
2017-07-15T06:58:53.083Z,94.86
2017-07-15T06:59:53.099Z,95.88
2017-07-15T07:00:53.097Z,93.94
2017-07-15T07:01:53.119Z,93.83
2017-07-15T07:02:53.097Z,93.51
2017-07-15T07:03:53.102Z,93.70
2017-07-15T07:04:53.075Z,93.10
2017-07-15T07:05:53.121Z,93.26
2017-07-15T07:06:53.116Z,93.75
2017-07-15T07:07:53.090Z,93.08
2017-07-15T07:08:53.113Z,93.45
2017-07-15T07:09:53.118Z,93.54
2017-07-15T07:10:53.085Z,93.10
2017-07-15T07:11:53.123Z,93.51
2017-07-15T07:12:53.042Z,94.29
2017-07-15T07:13:53.044Z,93.83
2017-07-15T07:14:53.132Z,93.70
2017-07-15T07:15:53.110Z,92.84
2017-07-15T07:16:53.200Z,91.90
2017-07-15T07:17:53.203Z,92.19
2017-07-15T07:18:53.184Z,91.84
2017-07-15T07:19:53.107Z,92.24
2017-07-15T07:20:53.136Z,92.27
2017-07-15T07:21:53.136Z,92.70
2017-07-15T07:22:53.116Z,93.16
2017-07-15T07:23:53.203Z,92.70
2017-07-15T07:24:53.142Z,93.13
2017-07-15T07:25:53.166Z,92.78
2017-07-15T07:26:53.146Z,92.35
2017-07-15T07:27:53.113Z,91.76
2017-07-15T07:28:53.172Z,91.76
2017-07-15T07:29:53.185Z,90.34
2017-07-15T07:30:53.210Z,91.63
2017-07-15T07:31:53.148Z,90.98
2017-07-15T07:32:53.153Z,90.61
2017-07-15T07:33:53.213Z,90.96
2017-07-15T07:34:53.185Z,91.09
2017-07-15T07:35:53.178Z,91.22
2017-07-15T07:36:53.154Z,91.52
2017-07-15T07:37:53.214Z,92.03
2017-07-15T07:38:53.123Z,92.57
2017-07-15T07:39:53.156Z,90.82
2017-07-15T07:40:53.128Z,91.71
2017-07-15T07:41:53.216Z,91.28
2017-07-15T07:42:53.129Z,91.65
2017-07-15T07:43:53.128Z,90.82
2017-07-15T07:44:53.119Z,91.11
2017-07-15T07:45:53.054Z,90.50
2017-07-15T07:46:53.088Z,90.71
2017-07-15T07:47:53.037Z,89.86
2017-07-15T07:48:53.114Z,90.20
2017-07-15T07:49:53.053Z,90.26
2017-07-15T07:50:53.055Z,91.41
2017-07-15T07:51:53.064Z,90.90
2017-07-15T07:52:53.116Z,90.13
2017-07-15T07:53:53.094Z,89.88
2017-07-15T07:54:53.116Z,90.34
2017-07-15T07:55:53.145Z,88.97
2017-07-15T07:56:53.157Z,88.89
2017-07-15T07:57:53.118Z,88.79
2017-07-15T07:58:53.153Z,90.18
2017-07-15T07:59:53.188Z,89.88
2017-07-15T08:00:53.124Z,88.92
2017-07-15T08:01:53.126Z,88.33
2017-07-15T08:02:53.159Z,89.19
2017-07-15T08:03:53.152Z,89.97
2017-07-15T08:04:53.194Z,88.07
2017-07-15T08:05:53.140Z,88.25
2017-07-15T08:06:53.233Z,87.82
2017-07-15T08:07:53.211Z,88.09
2017-07-15T08:08:53.178Z,88.81
2017-07-15T08:09:53.167Z,88.09
2017-07-15T08:10:53.214Z,88.33
2017-07-15T08:11:53.199Z,88.28
2017-07-15T08:12:53.199Z,87.40
2017-07-15T08:13:53.140Z,88.28
2017-07-15T08:14:53.204Z,89.06
2017-07-15T08:15:53.149Z,87.77
2017-07-15T08:16:53.232Z,87.93
2017-07-15T08:17:53.199Z,87.16
2017-07-15T08:18:53.167Z,87.69
2017-07-15T08:19:53.233Z,83.78
2017-07-15T08:20:53.153Z,84.44
2017-07-15T08:21:53.182Z,83.14
2017-07-15T08:22:53.206Z,82.06
2017-07-15T08:23:53.217Z,81.87
2017-07-15T08:24:53.181Z,82.21
2017-07-15T08:25:53.179Z,82.93
2017-07-15T08:26:53.152Z,82.75
2017-07-15T08:27:53.172Z,79.89
2017-07-15T08:28:53.151Z,79.28
2017-07-15T08:29:53.178Z,81.08
2017-07-15T08:30:53.175Z,79.41
2017-07-15T08:31:53.209Z,80.26
2017-07-15T08:32:53.242Z,79.31
2017-07-15T08:33:53.190Z,80.49
2017-07-15T08:34:53.244Z,81.74
2017-07-15T08:35:53.192Z,81.63
2017-07-15T08:36:53.225Z,80.76
2017-07-15T08:37:53.158Z,81.29
2017-07-15T08:38:53.224Z,80.44
2017-07-15T08:39:53.248Z,78.33
2017-07-15T08:40:53.209Z,78.36
2017-07-15T08:41:53.228Z,78.28
2017-07-15T08:42:53.189Z,80.71
2017-07-15T08:43:53.162Z,80.81
2017-07-15T08:44:53.250Z,80.92
2017-07-15T08:45:53.189Z,79.33
2017-07-15T08:46:53.193Z,81.26
2017-07-15T08:47:53.153Z,77.17
2017-07-15T08:48:53.183Z,77.36
2017-07-15T08:49:53.234Z,76.52
2017-07-15T08:50:53.194Z,78.94
2017-07-15T08:51:53.248Z,77.31
2017-07-15T08:52:53.270Z,75.10
2017-07-15T08:53:53.229Z,73.87
2017-07-15T08:54:53.236Z,76.73
2017-07-15T08:55:53.309Z,76.36
2017-07-15T08:56:53.187Z,77.07
2017-07-15T08:57:53.189Z,75.10
2017-07-15T08:58:53.224Z,77.02
2017-07-15T08:59:53.234Z,77.31
2017-07-15T09:00:53.181Z,77.41
2017-07-15T09:01:53.176Z,76.99
2017-07-15T09:02:53.141Z,77.73
2017-07-15T09:03:53.169Z,77.57
2017-07-15T09:04:53.147Z,77.31
2017-07-15T09:05:53.226Z,79.36
2017-07-15T09:06:53.201Z,78.97
2017-07-15T09:07:53.180Z,79.31
2017-07-15T09:08:53.238Z,79.02
2017-07-15T09:09:53.257Z,79.13
2017-07-15T09:10:53.258Z,79.07
2017-07-15T09:11:53.239Z,78.78
2017-07-15T09:12:53.227Z,79.57
2017-07-15T09:13:53.263Z,81.34
2017-07-15T09:14:53.212Z,80.44
2017-07-15T09:15:53.194Z,81.18
2017-07-15T09:16:53.234Z,80.02
2017-07-15T09:17:53.139Z,81.21
2017-07-15T09:18:53.170Z,81.84
2017-07-15T09:19:53.187Z,81.95
2017-07-15T09:20:53.146Z,81.84
2017-07-15T09:21:53.148Z,82.67
2017-07-15T09:22:53.198Z,81.48
2017-07-15T09:23:53.198Z,80.39
2017-07-15T09:24:53.242Z,80.94
2017-07-15T09:25:53.185Z,81.66
2017-07-15T09:26:53.268Z,80.39
2017-07-15T09:27:53.233Z,81.34
2017-07-15T09:28:53.274Z,80.79
2017-07-15T09:29:53.180Z,81.84
2017-07-15T09:30:53.187Z,81.02
2017-07-15T09:31:53.187Z,80.29
2017-07-15T09:32:53.203Z,79.86
2017-07-15T09:33:53.185Z,80.68
2017-07-15T09:34:53.184Z,79.07
2017-07-15T09:35:53.158Z,79.07
2017-07-15T09:36:53.151Z,79.57
2017-07-15T09:37:53.206Z,78.47
2017-07-15T09:38:53.210Z,78.65
2017-07-15T09:39:53.199Z,77.99
2017-07-15T09:40:53.205Z,77.65
2017-07-15T09:41:53.165Z,76.67
2017-07-15T09:42:53.208Z,76.94
2017-07-15T09:43:53.160Z,76.26
2017-07-15T09:44:53.186Z,77.04
2017-07-15T09:45:53.227Z,76.12
2017-07-15T09:46:53.281Z,76.67
2017-07-15T09:47:53.289Z,78.44
2017-07-15T09:48:53.199Z,78.36
2017-07-15T09:49:53.213Z,77.49
2017-07-15T09:50:53.260Z,77.31
2017-07-15T09:51:53.227Z,78.81
2017-07-15T09:52:53.263Z,79.73
2017-07-15T09:53:53.293Z,79.65
2017-07-15T09:54:53.285Z,80.10
2017-07-15T09:55:53.252Z,78.54
2017-07-15T09:56:53.249Z,79.13
2017-07-15T09:57:53.260Z,77.83
2017-07-15T09:58:53.226Z,78.97
2017-07-15T09:59:53.234Z,78.81
2017-07-15T10:00:53.328Z,77.49
2017-07-15T10:01:53.233Z,77.33
2017-07-15T10:02:53.203Z,79.31
2017-07-15T10:03:53.201Z,75.52
2017-07-15T10:04:53.297Z,74.97
2017-07-15T10:06:53.346Z,72.90
2017-07-15T10:07:53.239Z,75.10
2017-07-15T10:08:53.157Z,72.90
2017-07-15T10:09:53.228Z,73.24
2017-07-15T10:10:53.200Z,72.01
2017-07-15T10:11:53.223Z,73.35
2017-07-15T10:12:53.229Z,70.66
2017-07-15T10:13:53.159Z,72.41
2017-07-15T10:14:53.217Z,74.24
2017-07-15T10:15:53.211Z,71.13
2017-07-15T10:16:53.234Z,70.27
2017-07-15T10:17:53.243Z,69.98
2017-07-15T10:18:53.207Z,71.28
2017-07-15T10:19:53.219Z,70.71
2017-07-15T10:20:53.307Z,71.21
2017-07-15T10:21:53.215Z,71.07
2017-07-15T10:22:53.282Z,71.86
2017-07-15T10:23:53.284Z,73.30
2017-07-15T10:24:53.305Z,73.53
2017-07-15T10:25:53.304Z,74.60
2017-07-15T10:26:53.214Z,77.54
2017-07-15T10:27:53.216Z,76.18
2017-07-15T10:28:53.253Z,76.75
2017-07-15T10:29:53.215Z,78.31
2017-07-15T10:30:53.215Z,79.86
2017-07-15T10:31:53.252Z,81.66
2017-07-15T10:32:53.222Z,82.61
2017-07-15T10:33:53.219Z,83.62
2017-07-15T10:34:53.277Z,82.56
2017-07-15T10:35:53.218Z,84.60
2017-07-15T10:36:53.288Z,84.44
2017-07-15T10:37:53.252Z,83.62
2017-07-15T10:38:53.281Z,82.75
2017-07-15T10:39:53.255Z,82.11
2017-07-15T10:40:53.259Z,83.86
2017-07-15T10:41:53.317Z,83.38
2017-07-15T10:42:53.272Z,82.69
2017-07-15T10:43:53.290Z,79.91
2017-07-15T10:44:53.319Z,82.16
2017-07-15T10:45:53.315Z,82.53
2017-07-15T10:46:53.320Z,80.52
2017-07-15T10:47:53.259Z,84.05
2017-07-15T10:48:53.225Z,82.06
2017-07-15T10:49:53.227Z,79.75
2017-07-15T10:50:53.233Z,81.29
2017-07-15T10:51:53.226Z,79.07
2017-07-15T10:52:53.250Z,79.39
2017-07-15T10:53:53.263Z,73.89
2017-07-15T10:54:53.232Z,75.62
2017-07-15T10:55:53.285Z,74.55
2017-07-15T10:56:53.296Z,73.50
2017-07-15T10:57:53.234Z,74.05
2017-07-15T10:58:53.233Z,74.66
2017-07-15T10:59:53.303Z,74.71
2017-07-15T11:00:53.307Z,72.38
2017-07-15T11:01:53.326Z,71.07
2017-07-15T11:02:53.256Z,70.60
2017-07-15T11:03:53.270Z,70.87
2017-07-15T11:04:53.267Z,72.09
2017-07-15T11:05:53.251Z,71.18
2017-07-15T11:06:53.251Z,72.38
2017-07-15T11:07:53.254Z,72.88
2017-07-15T11:08:53.259Z,72.95
2017-07-15T11:09:53.258Z,73.22
2017-07-15T11:10:53.250Z,74.71
2017-07-15T11:11:53.262Z,74.99
2017-07-15T11:12:53.253Z,74.34
2017-07-15T11:13:53.308Z,73.58
2017-07-15T11:14:53.254Z,74.50
2017-07-15T11:15:53.235Z,74.87
2017-07-15T11:16:53.258Z,73.87
2017-07-15T11:17:53.237Z,74.71
2017-07-15T11:18:53.247Z,71.44
2017-07-15T11:19:53.245Z,71.75
2017-07-15T11:20:53.380Z,71.13
2017-07-15T11:21:53.198Z,71.67
2017-07-15T11:22:53.252Z,71.36
2017-07-15T11:23:53.245Z,70.95
2017-07-15T11:24:53.263Z,68.01
2017-07-15T11:25:53.181Z,70.95
2017-07-15T11:26:53.246Z,69.70
2017-07-15T11:27:53.234Z,68.91
2017-07-15T11:28:53.261Z,68.04
2017-07-15T11:29:53.259Z,69.26
2017-07-15T11:30:53.262Z,67.96
2017-07-15T11:31:53.260Z,68.50
2017-07-15T11:32:53.302Z,69.72
2017-07-15T11:33:53.228Z,69.72
2017-07-15T11:34:53.247Z,72.20
2017-07-15T11:35:53.326Z,70.17
2017-07-15T11:36:53.277Z,72.09
2017-07-15T11:37:53.324Z,71.31
2017-07-15T11:38:53.257Z,72.77
2017-07-15T11:39:53.260Z,71.96
2017-07-15T11:40:53.343Z,72.85
2017-07-15T11:41:53.255Z,71.10
2017-07-15T11:42:53.283Z,72.85
2017-07-15T11:43:53.320Z,73.53
2017-07-15T11:44:53.324Z,73.24
2017-07-15T11:45:53.354Z,73.01
2017-07-15T11:46:53.263Z,70.87
2017-07-15T11:47:53.285Z,69.15
2017-07-15T11:48:53.317Z,71.03
2017-07-15T11:49:53.355Z,70.17
2017-07-15T11:50:53.266Z,70.21
2017-07-15T11:51:53.291Z,69.82
2017-07-15T11:52:53.336Z,71.05
2017-07-15T11:53:53.355Z,70.74
2017-07-15T11:54:53.357Z,70.43
2017-07-15T11:55:53.305Z,71.89
2017-07-15T11:56:53.287Z,71.18
2017-07-15T11:57:53.299Z,70.79
2017-07-15T11:58:53.289Z,70.19
2017-07-15T11:59:53.299Z,69.75
2017-07-15T12:00:53.330Z,69.18
2017-07-15T12:01:53.340Z,68.40
2017-07-15T12:02:53.305Z,70.48
2017-07-15T12:03:53.355Z,69.46
2017-07-15T12:04:53.277Z,70.19
2017-07-15T12:05:53.309Z,70.29
2017-07-15T12:06:53.339Z,69.38
2017-07-15T12:07:53.308Z,70.29
2017-07-15T12:08:53.310Z,69.34
2017-07-15T12:09:53.299Z,69.82
2017-07-15T12:10:53.305Z,70.14
2017-07-15T12:11:53.311Z,69.20
2017-07-15T12:12:53.341Z,68.76
2017-07-15T12:13:53.340Z,69.82
2017-07-15T12:14:53.359Z,69.44
2017-07-15T12:15:53.308Z,68.32
2017-07-15T12:16:53.278Z,68.45
2017-07-15T12:17:53.330Z,70.17
2017-07-15T12:18:53.298Z,68.84
2017-07-15T12:19:53.361Z,69.67
2017-07-15T12:20:53.342Z,66.89
2017-07-15T12:21:53.342Z,67.44
2017-07-15T12:22:53.303Z,65.81
2017-07-15T12:23:53.306Z,67.44
2017-07-15T12:24:53.302Z,62.97
2017-07-15T12:25:53.214Z,64.34
2017-07-15T12:26:53.284Z,64.31
2017-07-15T12:27:53.243Z,66.30
2017-07-15T12:28:53.219Z,67.20
2017-07-15T12:29:53.331Z,64.42
2017-07-15T12:30:53.279Z,65.60
2017-07-15T12:31:53.296Z,64.88
2017-07-15T12:32:53.218Z,66.22
2017-07-15T12:33:53.282Z,65.26
2017-07-15T12:34:53.219Z,66.84
2017-07-15T12:35:53.297Z,64.90
2017-07-15T12:36:53.309Z,64.90
2017-07-15T12:37:53.265Z,66.33
2017-07-15T12:38:53.282Z,65.83
2017-07-15T12:39:53.296Z,65.78
2017-07-15T12:40:53.312Z,67.18
2017-07-15T12:41:53.320Z,66.74
2017-07-15T12:42:53.244Z,67.36
2017-07-15T12:43:53.255Z,66.53
2017-07-15T12:44:53.299Z,64.10
2017-07-15T12:45:53.267Z,65.60
2017-07-15T12:46:53.329Z,65.65
2017-07-15T12:47:53.300Z,67.18
2017-07-15T12:48:53.378Z,64.38
2017-07-15T12:49:53.320Z,63.23
2017-07-15T12:50:53.328Z,62.92
2017-07-15T12:51:53.351Z,65.26
2017-07-15T12:52:53.334Z,62.35
2017-07-15T12:53:53.324Z,61.82
2017-07-15T12:54:53.388Z,63.13
2017-07-15T12:55:53.350Z,61.14